Peotone Weather

Nearby METAR Reports

 

KIGQ - Lansing, Illinois, USA
Distance from station: NE 19mi, 30km
Updated: Fri, 03-Jul-2020 2:35pm CDT
Clear
Clear
 Wind from NNE
Wind: NNE 9 mph , 15 km/h
Temperature: 86°F , 30°C
Heat Index: 86°F , 30°C
Dew Point: 61°F , 16°C
Humidity: 43%
Barometer: 30.04 inHg , 1017.3 hPa
Clouds: Clear
Visibility: 10 miles , 16 km
2020/07/03 19:35 KIGQ 031935Z AUTO 03008KT 10SM CLR 30/16 A3004 RMK AO2 T02980160
KIKK - Kankakee, Illinois, USA
Distance from station: S 19mi, 30km
Updated: Fri, 03-Jul-2020 2:35pm CDT
Partly cloudy
Partly cloudy
 Wind from calm
Wind: Calm
Temperature: 88°F , 31°C
Heat Index: 89°F , 32°C
Dew Point: 63°F , 17°C
Humidity: 43%
Barometer: 30.04 inHg , 1017.3 hPa
Clouds: Partly cloudy
Visibility: 10 miles , 16 km
Cloud details: Partly cloudy 6000 ft
2020/07/03 19:35 KIKK 031935Z AUTO 00000KT 10SM SCT060 31/17 A3004 RMK AO2 T03120166
 
KSJC - Joliet, Illinois, USA
Distance from station: WNW 24mi, 38km
Updated: Fri, 03-Jul-2020 1:53pm CDT
NOT Current
Clear
Clear
 Wind from WNW
Wind: WNW 3 mph , 6 km/h
Temperature: 75°F , 24°C
Dew Point: 48°F , 9°C
Humidity: 39%
Barometer: 30.01 inHg , 1016.3 hPa
Clouds: Clear
Visibility: 10 miles , 16 km
2020/07/03 18:53 KSJC 031853Z 29003KT 10SM CLR 24/09 A3001 RMK AO2 SLP162 T02390089
KLOT - Romeoville, Illinois, USA
Distance from station: NW 26mi, 41km
Updated: Fri, 03-Jul-2020 2:35pm CDT
Clear
Clear
 Wind from E
Wind: E 3 mph , 6 km/h
Temperature: 90°F , 32°C
Dew Point: 57°F , 14°C
Humidity: 33%
Barometer: 30.04 inHg , 1017.3 hPa
Clouds: Clear
Visibility: 10 miles , 16 km
2020/07/03 19:35 KLOT 031935Z AUTO 08003KT 10SM CLR 32/14 A3004 RMK AO2 T03180143
 
KMDW - Midway Airport Chicago, Illinois, USA
Distance from station: N 31mi, 50km
Updated: Fri, 03-Jul-2020 1:53pm CDT
NOT Current
Few Clouds
Few Clouds
 Wind from ENE
Wind: ENE 10 mph , 17 km/h
Temperature: 88°F , 31°C
Heat Index: 88°F , 31°C
Dew Point: 61°F , 16°C
Humidity: 40%
Barometer: 30.05 inHg , 1017.6 hPa
Clouds: Few Clouds
Visibility: 10 miles , 16 km
Cloud details: Few Clouds 6000 ft
Few Clouds 25000 ft
2020/07/03 18:53 KMDW 031853Z 06009KT 10SM FEW060 FEW250 31/16 A3005 RMK AO2 SLP163 T03060156 $
KC09 - Morris, Illinois, USA
Distance from station: W 34mi, 54km
Updated: Fri, 03-Jul-2020 2:39pm CDT
Clear
Clear
 Wind from calm
Wind: Calm
Temperature: 88°F , 31°C
Heat Index: 89°F , 32°C
Dew Point: 63°F , 17°C
Humidity: 43%
Barometer: 30.03 inHg , 1016.9 hPa
Clouds: Clear
Visibility: 10 miles , 16 km
2020/07/03 19:39 KC09 031939Z AUTO 00000KT 10SM CLR 31/17 A3003 RMK AO2

Metar display script from Saratoga-Weather.org